sensor_id;sensor_type;location;lat;lon;timestamp;temperature;humidity
9389;DHT22;4734;52.778;6.798;2022-12-29T00:39:30;9.50;99.90
9389;DHT22;4734;52.778;6.798;2022-12-29T00:42:33;9.50;99.90
9389;DHT22;4734;52.778;6.798;2022-12-29T00:45:36;9.50;99.90
9389;DHT22;4734;52.778;6.798;2022-12-29T00:48:22;9.50;99.90
9389;DHT22;4734;52.778;6.798;2022-12-29T00:51:21;9.50;99.90
9389;DHT22;4734;52.778;6.798;2022-12-29T00:54:07;9.50;99.90
9389;DHT22;4734;52.778;6.798;2022-12-29T00:56:54;9.50;99.90
9389;DHT22;4734;52.778;6.798;2022-12-29T00:59:41;9.50;99.90
9389;DHT22;4734;52.778;6.798;2022-12-29T01:02:27;9.50;99.90
9389;DHT22;4734;52.778;6.798;2022-12-29T01:05:13;9.60;99.90
9389;DHT22;4734;52.778;6.798;2022-12-29T01:07:58;9.50;99.90
9389;DHT22;4734;52.778;6.798;2022-12-29T01:10:44;9.60;99.90
9389;DHT22;4734;52.778;6.798;2022-12-29T01:13:30;9.50;99.90
9389;DHT22;4734;52.778;6.798;2022-12-29T01:16:15;9.60;99.90
9389;DHT22;4734;52.778;6.798;2022-12-29T01:19:01;9.60;99.90
9389;DHT22;4734;52.778;6.798;2022-12-29T01:21:47;9.60;99.90
9389;DHT22;4734;52.778;6.798;2022-12-29T01:24:33;9.60;99.90
9389;DHT22;4734;52.778;6.798;2022-12-29T01:27:18;9.60;99.90
9389;DHT22;4734;52.778;6.798;2022-12-29T01:30:06;9.60;99.90
9389;DHT22;4734;52.778;6.798;2022-12-29T01:32:52;9.60;99.90
9389;DHT22;4734;52.778;6.798;2022-12-29T01:35:38;9.60;99.90
9389;DHT22;4734;52.778;6.798;2022-12-29T01:38:23;9.60;99.90
9389;DHT22;4734;52.778;6.798;2022-12-29T01:41:10;9.60;99.90
9389;DHT22;4734;52.778;6.798;2022-12-29T01:43:58;9.60;99.90
9389;DHT22;4734;52.778;6.798;2022-12-29T01:46:48;9.70;99.90
9389;DHT22;4734;52.778;6.798;2022-12-29T01:49:34;9.70;99.90
9389;DHT22;4734;52.778;6.798;2022-12-29T01:52:20;9.70;99.90
9389;DHT22;4734;52.778;6.798;2022-12-29T01:55:09;9.70;99.90
9389;DHT22;4734;52.778;6.798;2022-12-29T01:57:59;9.70;99.90
9389;DHT22;4734;52.778;6.798;2022-12-29T02:00:46;9.70;99.90
9389;DHT22;4734;52.778;6.798;2022-12-29T02:03:33;9.70;99.90
9389;DHT22;4734;52.778;6.798;2022-12-29T02:06:22;9.80;99.90
9389;DHT22;4734;52.778;6.798;2022-12-29T02:09:07;9.80;99.90
9389;DHT22;4734;52.778;6.798;2022-12-29T02:11:53;9.80;99.90
9389;DHT22;4734;52.778;6.798;2022-12-29T02:14:38;9.80;99.90
9389;DHT22;4734;52.778;6.798;2022-12-29T02:17:32;9.80;99.90
9389;DHT22;4734;52.778;6.798;2022-12-29T02:27:40;9.80;99.90
9389;DHT22;4734;52.778;6.798;2022-12-29T02:30:40;9.80;99.90
9389;DHT22;4734;52.778;6.798;2022-12-29T02:33:37;9.80;99.90
9389;DHT22;4734;52.778;6.798;2022-12-29T02:36:31;9.80;99.90
9389;DHT22;4734;52.778;6.798;2022-12-29T02:39:26;9.80;99.90
9389;DHT22;4734;52.778;6.798;2022-12-29T02:42:22;9.80;99.90
9389;DHT22;4734;52.778;6.798;2022-12-29T02:45:15;9.80;99.90
9389;DHT22;4734;52.778;6.798;2022-12-29T02:48:09;9.90;99.90
9389;DHT22;4734;52.778;6.798;2022-12-29T02:51:00;9.90;99.90
9389;DHT22;4734;52.778;6.798;2022-12-29T02:53:47;9.90;99.90
9389;DHT22;4734;52.778;6.798;2022-12-29T02:56:51;9.90;99.90
9389;DHT22;4734;52.778;6.798;2022-12-29T02:59:37;9.90;99.90
9389;DHT22;4734;52.778;6.798;2022-12-29T03:02:36;9.90;99.90
9389;DHT22;4734;52.778;6.798;2022-12-29T03:05:42;9.90;99.90
9389;DHT22;4734;52.778;6.798;2022-12-29T03:08:34;9.90;99.90
9389;DHT22;4734;52.778;6.798;2022-12-29T03:11:27;9.90;99.90
9389;DHT22;4734;52.778;6.798;2022-12-29T03:14:34;9.90;99.90
9389;DHT22;4734;52.778;6.798;2022-12-29T03:17:50;9.90;99.90
9389;DHT22;4734;52.778;6.798;2022-12-29T03:20:41;9.90;99.90
9389;DHT22;4734;52.778;6.798;2022-12-29T03:23:32;9.90;99.90
9389;DHT22;4734;52.778;6.798;2022-12-29T03:26:20;9.90;99.90
9389;DHT22;4734;52.778;6.798;2022-12-29T03:29:06;9.90;99.90
9389;DHT22;4734;52.778;6.798;2022-12-29T03:31:54;9.90;99.90
9389;DHT22;4734;52.778;6.798;2022-12-29T03:34:41;9.90;99.90
9389;DHT22;4734;52.778;6.798;2022-12-29T03:37:32;9.90;99.90
9389;DHT22;4734;52.778;6.798;2022-12-29T03:40:21;9.90;99.90
9389;DHT22;4734;52.778;6.798;2022-12-29T03:43:07;9.90;99.90
9389;DHT22;4734;52.778;6.798;2022-12-29T03:45:53;9.90;99.90
9389;DHT22;4734;52.778;6.798;2022-12-29T03:48:39;9.90;99.90
9389;DHT22;4734;52.778;6.798;2022-12-29T03:51:24;9.90;99.90
9389;DHT22;4734;52.778;6.798;2022-12-29T03:54:11;9.90;99.90
9389;DHT22;4734;52.778;6.798;2022-12-29T03:56:57;9.90;99.90
9389;DHT22;4734;52.778;6.798;2022-12-29T03:59:43;9.90;99.90
9389;DHT22;4734;52.778;6.798;2022-12-29T04:02:28;9.90;99.90
9389;DHT22;4734;52.778;6.798;2022-12-29T04:05:14;9.90;99.90
9389;DHT22;4734;52.778;6.798;2022-12-29T04:07:59;9.90;99.90
9389;DHT22;4734;52.778;6.798;2022-12-29T04:10:47;9.90;99.90
9389;DHT22;4734;52.778;6.798;2022-12-29T04:13:33;9.90;99.90
9389;DHT22;4734;52.778;6.798;2022-12-29T04:16:18;9.90;99.90
9389;DHT22;4734;52.778;6.798;2022-12-29T04:19:04;9.90;99.90
9389;DHT22;4734;52.778;6.798;2022-12-29T04:21:50;9.90;99.90
9389;DHT22;4734;52.778;6.798;2022-12-29T04:24:35;9.90;99.90
9389;DHT22;4734;52.778;6.798;2022-12-29T04:27:22;9.90;99.90
9389;DHT22;4734;52.778;6.798;2022-12-29T04:30:09;9.90;99.90
9389;DHT22;4734;52.778;6.798;2022-12-29T04:32:55;9.90;99.90
9389;DHT22;4734;52.778;6.798;2022-12-29T04:35:41;9.90;99.90
9389;DHT22;4734;52.778;6.798;2022-12-29T04:38:27;9.90;99.90
9389;DHT22;4734;52.778;6.798;2022-12-29T04:41:13;9.90;99.90
9389;DHT22;4734;52.778;6.798;2022-12-29T04:44:00;9.90;99.90
9389;DHT22;4734;52.778;6.798;2022-12-29T04:46:45;9.90;99.90
9389;DHT22;4734;52.778;6.798;2022-12-29T04:49:31;9.90;99.90
9389;DHT22;4734;52.778;6.798;2022-12-29T04:52:16;9.90;99.90
9389;DHT22;4734;52.778;6.798;2022-12-29T04:55:02;9.90;99.90
9389;DHT22;4734;52.778;6.798;2022-12-29T04:57:48;9.90;99.90
9389;DHT22;4734;52.778;6.798;2022-12-29T05:00:35;9.90;99.90
9389;DHT22;4734;52.778;6.798;2022-12-29T05:03:20;9.90;99.90
9389;DHT22;4734;52.778;6.798;2022-12-29T05:06:06;9.90;99.90
9389;DHT22;4734;52.778;6.798;2022-12-29T05:08:52;9.90;99.90
9389;DHT22;4734;52.778;6.798;2022-12-29T05:11:37;9.90;99.90
9389;DHT22;4734;52.778;6.798;2022-12-29T05:14:23;9.90;99.90
9389;DHT22;4734;52.778;6.798;2022-12-29T05:17:10;9.80;99.90
9389;DHT22;4734;52.778;6.798;2022-12-29T05:19:55;9.80;99.90
9389;DHT22;4734;52.778;6.798;2022-12-29T05:22:41;9.90;99.90
9389;DHT22;4734;52.778;6.798;2022-12-29T05:25:26;9.80;99.90
9389;DHT22;4734;52.778;6.798;2022-12-29T05:28:12;9.80;99.90
9389;DHT22;4734;52.778;6.798;2022-12-29T05:30:58;9.90;99.90
9389;DHT22;4734;52.778;6.798;2022-12-29T05:33:44;9.90;99.90
9389;DHT22;4734;52.778;6.798;2022-12-29T05:36:31;9.90;99.90
9389;DHT22;4734;52.778;6.798;2022-12-29T05:39:16;9.90;99.90
9389;DHT22;4734;52.778;6.798;2022-12-29T05:42:02;9.80;99.90
9389;DHT22;4734;52.778;6.798;2022-12-29T05:44:48;9.80;99.90
9389;DHT22;4734;52.778;6.798;2022-12-29T05:47:36;9.80;99.90
9389;DHT22;4734;52.778;6.798;2022-12-29T05:50:23;9.80;99.90
9389;DHT22;4734;52.778;6.798;2022-12-29T05:53:08;9.80;99.90
9389;DHT22;4734;52.778;6.798;2022-12-29T05:55:54;9.80;99.90
9389;DHT22;4734;52.778;6.798;2022-12-29T05:58:39;9.80;99.90
9389;DHT22;4734;52.778;6.798;2022-12-29T06:01:25;9.80;99.90
9389;DHT22;4734;52.778;6.798;2022-12-29T06:04:10;9.80;99.90
9389;DHT22;4734;52.778;6.798;2022-12-29T06:06:57;9.80;99.90
9389;DHT22;4734;52.778;6.798;2022-12-29T06:09:43;9.80;99.90
9389;DHT22;4734;52.778;6.798;2022-12-29T06:12:28;9.80;99.90
9389;DHT22;4734;52.778;6.798;2022-12-29T06:15:14;9.80;99.90
9389;DHT22;4734;52.778;6.798;2022-12-29T06:18:00;9.70;99.90
9389;DHT22;4734;52.778;6.798;2022-12-29T06:20:45;9.70;99.90
9389;DHT22;4734;52.778;6.798;2022-12-29T06:23:32;9.70;99.90
9389;DHT22;4734;52.778;6.798;2022-12-29T06:26:18;9.70;99.90
9389;DHT22;4734;52.778;6.798;2022-12-29T06:29:03;9.70;99.90
9389;DHT22;4734;52.778;6.798;2022-12-29T06:31:49;9.70;99.90
9389;DHT22;4734;52.778;6.798;2022-12-29T06:34:35;9.70;99.90
9389;DHT22;4734;52.778;6.798;2022-12-29T06:37:20;9.70;99.90
9389;DHT22;4734;52.778;6.798;2022-12-29T06:40:08;9.70;99.90
9389;DHT22;4734;52.778;6.798;2022-12-29T06:42:54;9.70;99.90
9389;DHT22;4734;52.778;6.798;2022-12-29T06:45:40;9.70;99.90
9389;DHT22;4734;52.778;6.798;2022-12-29T06:48:26;9.70;99.90
9389;DHT22;4734;52.778;6.798;2022-12-29T06:51:11;9.70;99.90
9389;DHT22;4734;52.778;6.798;2022-12-29T06:53:57;9.60;99.90
9389;DHT22;4734;52.778;6.798;2022-12-29T06:56:44;9.60;99.90
9389;DHT22;4734;52.778;6.798;2022-12-29T06:59:29;9.60;99.90
9389;DHT22;4734;52.778;6.798;2022-12-29T07:02:15;9.60;99.90
9389;DHT22;4734;52.778;6.798;2022-12-29T07:05:02;9.60;99.90
9389;DHT22;4734;52.778;6.798;2022-12-29T07:07:47;9.60;99.90
9389;DHT22;4734;52.778;6.798;2022-12-29T07:10:33;9.60;99.90
9389;DHT22;4734;52.778;6.798;2022-12-29T07:13:20;9.60;99.90
9389;DHT22;4734;52.778;6.798;2022-12-29T07:16:06;9.60;99.90
9389;DHT22;4734;52.778;6.798;2022-12-29T07:18:51;9.60;99.90
9389;DHT22;4734;52.778;6.798;2022-12-29T07:21:37;9.60;99.90
9389;DHT22;4734;52.778;6.798;2022-12-29T07:24:23;9.60;99.90
9389;DHT22;4734;52.778;6.798;2022-12-29T07:27:10;9.60;99.90
9389;DHT22;4734;52.778;6.798;2022-12-29T07:29:56;9.50;99.90
9389;DHT22;4734;52.778;6.798;2022-12-29T07:32:42;9.50;99.90
9389;DHT22;4734;52.778;6.798;2022-12-29T07:35:28;9.50;99.90
9389;DHT22;4734;52.778;6.798;2022-12-29T07:38:13;9.50;99.90
9389;DHT22;4734;52.778;6.798;2022-12-29T07:40:59;9.50;99.90
9389;DHT22;4734;52.778;6.798;2022-12-29T07:43:46;9.50;99.90
9389;DHT22;4734;52.778;6.798;2022-12-29T07:46:33;9.50;99.90
9389;DHT22;4734;52.778;6.798;2022-12-29T07:49:19;9.50;99.90
9389;DHT22;4734;52.778;6.798;2022-12-29T07:52:05;9.50;99.90
9389;DHT22;4734;52.778;6.798;2022-12-29T07:54:50;9.50;99.90
9389;DHT22;4734;52.778;6.798;2022-12-29T07:57:36;9.50;99.90
9389;DHT22;4734;52.778;6.798;2022-12-29T08:00:22;9.50;99.90
9389;DHT22;4734;52.778;6.798;2022-12-29T08:03:09;9.50;99.90
9389;DHT22;4734;52.778;6.798;2022-12-29T08:05:56;9.50;99.90
9389;DHT22;4734;52.778;6.798;2022-12-29T08:08:42;9.40;99.90
9389;DHT22;4734;52.778;6.798;2022-12-29T08:11:27;9.50;99.90
9389;DHT22;4734;52.778;6.798;2022-12-29T08:14:13;9.40;99.90
9389;DHT22;4734;52.778;6.798;2022-12-29T08:16:59;9.40;99.90
9389;DHT22;4734;52.778;6.798;2022-12-29T08:19:46;9.40;99.90
9389;DHT22;4734;52.778;6.798;2022-12-29T08:22:31;9.40;99.90
9389;DHT22;4734;52.778;6.798;2022-12-29T08:25:17;9.40;99.90
9389;DHT22;4734;52.778;6.798;2022-12-29T08:28:03;9.40;99.90
9389;DHT22;4734;52.778;6.798;2022-12-29T08:30:49;9.40;99.90
9389;DHT22;4734;52.778;6.798;2022-12-29T08:33:34;9.40;99.90
9389;DHT22;4734;52.778;6.798;2022-12-29T08:36:21;9.40;99.90
9389;DHT22;4734;52.778;6.798;2022-12-29T08:39:07;9.40;99.90
9389;DHT22;4734;52.778;6.798;2022-12-29T08:41:52;9.40;99.90
9389;DHT22;4734;52.778;6.798;2022-12-29T08:44:38;9.40;99.90
9389;DHT22;4734;52.778;6.798;2022-12-29T08:47:24;9.40;99.90
9389;DHT22;4734;52.778;6.798;2022-12-29T08:50:09;9.40;99.90
9389;DHT22;4734;52.778;6.798;2022-12-29T08:52:56;9.40;99.90
9389;DHT22;4734;52.778;6.798;2022-12-29T08:55:41;9.40;99.90
9389;DHT22;4734;52.778;6.798;2022-12-29T08:58:27;9.40;99.90
9389;DHT22;4734;52.778;6.798;2022-12-29T09:01:13;9.40;99.90
9389;DHT22;4734;52.778;6.798;2022-12-29T09:03:59;9.40;99.90
9389;DHT22;4734;52.778;6.798;2022-12-29T09:06:44;9.40;99.90
9389;DHT22;4734;52.778;6.798;2022-12-29T09:09:31;9.40;99.90
9389;DHT22;4734;52.778;6.798;2022-12-29T09:12:17;9.40;99.90
9389;DHT22;4734;52.778;6.798;2022-12-29T09:15:04;9.40;99.90
9389;DHT22;4734;52.778;6.798;2022-12-29T09:17:49;9.40;99.90
9389;DHT22;4734;52.778;6.798;2022-12-29T09:20:35;9.40;99.90
9389;DHT22;4734;52.778;6.798;2022-12-29T09:23:21;9.40;99.90
9389;DHT22;4734;52.778;6.798;2022-12-29T09:26:08;9.40;99.90
9389;DHT22;4734;52.778;6.798;2022-12-29T09:28:54;9.40;99.90
9389;DHT22;4734;52.778;6.798;2022-12-29T09:31:39;9.40;99.90
9389;DHT22;4734;52.778;6.798;2022-12-29T09:34:25;9.40;99.90
9389;DHT22;4734;52.778;6.798;2022-12-29T09:37:10;9.40;99.90
9389;DHT22;4734;52.778;6.798;2022-12-29T09:39:56;9.40;99.90
9389;DHT22;4734;52.778;6.798;2022-12-29T09:42:47;9.40;99.90
9389;DHT22;4734;52.778;6.798;2022-12-29T09:45:42;9.40;99.90
9389;DHT22;4734;52.778;6.798;2022-12-29T09:48:31;9.40;99.90
9389;DHT22;4734;52.778;6.798;2022-12-29T09:51:22;9.40;99.90
9389;DHT22;4734;52.778;6.798;2022-12-29T09:54:24;9.40;99.90
9389;DHT22;4734;52.778;6.798;2022-12-29T09:57:21;9.40;99.90
9389;DHT22;4734;52.778;6.798;2022-12-29T10:00:12;9.40;99.90
9389;DHT22;4734;52.778;6.798;2022-12-29T10:03:01;9.40;99.90
9389;DHT22;4734;52.778;6.798;2022-12-29T10:05:51;9.40;99.90
9389;DHT22;4734;52.778;6.798;2022-12-29T10:08:43;9.40;99.90
9389;DHT22;4734;52.778;6.798;2022-12-29T10:11:40;9.40;99.90
9389;DHT22;4734;52.778;6.798;2022-12-29T10:14:45;9.40;99.90
9389;DHT22;4734;52.778;6.798;2022-12-29T10:17:39;9.40;99.90
9389;DHT22;4734;52.778;6.798;2022-12-29T10:20:30;9.40;99.90
9389;DHT22;4734;52.778;6.798;2022-12-29T10:23:26;9.40;99.90
9389;DHT22;4734;52.778;6.798;2022-12-29T10:26:16;9.40;99.90
9389;DHT22;4734;52.778;6.798;2022-12-29T10:29:04;9.40;99.90
9389;DHT22;4734;52.778;6.798;2022-12-29T10:31:54;9.40;99.90
9389;DHT22;4734;52.778;6.798;2022-12-29T10:34:47;9.40;99.90
9389;DHT22;4734;52.778;6.798;2022-12-29T10:37:38;9.40;99.90
9389;DHT22;4734;52.778;6.798;2022-12-29T10:40:28;9.40;99.90
9389;DHT22;4734;52.778;6.798;2022-12-29T10:43:25;9.40;99.90
9389;DHT22;4734;52.778;6.798;2022-12-29T10:46:13;9.40;99.90
9389;DHT22;4734;52.778;6.798;2022-12-29T10:48:59;9.40;99.90
9389;DHT22;4734;52.778;6.798;2022-12-29T10:51:48;9.40;99.90
9389;DHT22;4734;52.778;6.798;2022-12-29T10:54:42;9.40;99.90
9389;DHT22;4734;52.778;6.798;2022-12-29T10:57:34;9.40;99.90
9389;DHT22;4734;52.778;6.798;2022-12-29T11:00:21;9.40;99.90
9389;DHT22;4734;52.778;6.798;2022-12-29T11:06:28;9.40;99.90
9389;DHT22;4734;52.778;6.798;2022-12-29T11:09:22;9.40;99.90
9389;DHT22;4734;52.778;6.798;2022-12-29T11:12:25;9.40;99.90
9389;DHT22;4734;52.778;6.798;2022-12-29T11:15:13;9.40;99.90
9389;DHT22;4734;52.778;6.798;2022-12-29T11:17:59;9.40;99.90
9389;DHT22;4734;52.778;6.798;2022-12-29T11:20:44;9.40;99.90
9389;DHT22;4734;52.778;6.798;2022-12-29T11:23:32;9.40;99.90
9389;DHT22;4734;52.778;6.798;2022-12-29T11:26:21;9.40;99.90
9389;DHT22;4734;52.778;6.798;2022-12-29T11:29:27;9.40;99.90
9389;DHT22;4734;52.778;6.798;2022-12-29T11:32:18;9.40;99.90
9389;DHT22;4734;52.778;6.798;2022-12-29T11:35:04;9.50;99.90
9389;DHT22;4734;52.778;6.798;2022-12-29T11:37:56;9.50;99.90
9389;DHT22;4734;52.778;6.798;2022-12-29T11:40:42;9.50;99.90
9389;DHT22;4734;52.778;6.798;2022-12-29T11:43:31;9.50;99.90
9389;DHT22;4734;52.778;6.798;2022-12-29T11:46:22;9.50;99.90
9389;DHT22;4734;52.778;6.798;2022-12-29T11:49:12;9.50;99.90
9389;DHT22;4734;52.778;6.798;2022-12-29T11:51:59;9.50;99.90
9389;DHT22;4734;52.778;6.798;2022-12-29T11:54:45;9.50;99.90
9389;DHT22;4734;52.778;6.798;2022-12-29T11:57:33;9.50;99.90
9389;DHT22;4734;52.778;6.798;2022-12-29T12:00:22;9.50;99.90
9389;DHT22;4734;52.778;6.798;2022-12-29T12:03:13;9.50;99.90
9389;DHT22;4734;52.778;6.798;2022-12-29T12:06:01;9.50;99.90
9389;DHT22;4734;52.778;6.798;2022-12-29T12:08:53;9.50;99.90
9389;DHT22;4734;52.778;6.798;2022-12-29T12:11:42;9.50;99.90
9389;DHT22;4734;52.778;6.798;2022-12-29T12:14:34;9.60;99.90
9389;DHT22;4734;52.778;6.798;2022-12-29T12:17:26;9.60;99.90
9389;DHT22;4734;52.778;6.798;2022-12-29T12:20:22;9.60;99.90
9389;DHT22;4734;52.778;6.798;2022-12-29T12:23:18;9.60;99.90
9389;DHT22;4734;52.778;6.798;2022-12-29T12:26:11;9.60;99.90
9389;DHT22;4734;52.778;6.798;2022-12-29T12:29:01;9.60;99.90
9389;DHT22;4734;52.778;6.798;2022-12-29T12:31:54;9.60;99.90
9389;DHT22;4734;52.778;6.798;2022-12-29T12:34:44;9.60;99.90
9389;DHT22;4734;52.778;6.798;2022-12-29T12:37:58;9.70;99.90
9389;DHT22;4734;52.778;6.798;2022-12-29T12:41:01;9.70;99.90
9389;DHT22;4734;52.778;6.798;2022-12-29T12:43:53;9.70;99.90
9389;DHT22;4734;52.778;6.798;2022-12-29T12:47:07;9.70;99.90
9389;DHT22;4734;52.778;6.798;2022-12-29T12:50:18;9.70;99.90
9389;DHT22;4734;52.778;6.798;2022-12-29T12:53:30;9.70;99.90
9389;DHT22;4734;52.778;6.798;2022-12-29T12:56:34;9.70;99.90
9389;DHT22;4734;52.778;6.798;2022-12-29T12:59:35;9.70;99.90
9389;DHT22;4734;52.778;6.798;2022-12-29T13:02:34;9.70;99.90
9389;DHT22;4734;52.778;6.798;2022-12-29T13:05:34;9.70;99.90
9389;DHT22;4734;52.778;6.798;2022-12-29T13:08:37;9.70;99.90
9389;DHT22;4734;52.778;6.798;2022-12-29T13:11:36;9.70;99.90
9389;DHT22;4734;52.778;6.798;2022-12-29T13:14:38;9.70;99.90
9389;DHT22;4734;52.778;6.798;2022-12-29T13:17:32;9.70;99.90
9389;DHT22;4734;52.778;6.798;2022-12-29T13:20:29;9.70;99.90
9389;DHT22;4734;52.778;6.798;2022-12-29T13:23:27;9.70;99.90
9389;DHT22;4734;52.778;6.798;2022-12-29T13:26:20;9.70;99.90
9389;DHT22;4734;52.778;6.798;2022-12-29T13:29:15;9.60;99.90
9389;DHT22;4734;52.778;6.798;2022-12-29T13:32:13;9.70;99.90
9389;DHT22;4734;52.778;6.798;2022-12-29T13:35:18;9.70;99.90
9389;DHT22;4734;52.778;6.798;2022-12-29T13:38:12;9.70;99.90
9389;DHT22;4734;52.778;6.798;2022-12-29T13:41:01;9.70;99.90
9389;DHT22;4734;52.778;6.798;2022-12-29T13:43:50;9.70;99.90
9389;DHT22;4734;52.778;6.798;2022-12-29T13:46:40;9.70;99.90
9389;DHT22;4734;52.778;6.798;2022-12-29T13:49:26;9.70;99.90
9389;DHT22;4734;52.778;6.798;2022-12-29T13:52:18;9.70;99.90
9389;DHT22;4734;52.778;6.798;2022-12-29T13:55:23;9.70;99.90
9389;DHT22;4734;52.778;6.798;2022-12-29T13:58:14;9.70;99.90
9389;DHT22;4734;52.778;6.798;2022-12-29T14:01:12;9.70;99.90
9389;DHT22;4734;52.778;6.798;2022-12-29T14:04:08;9.70;99.90
9389;DHT22;4734;52.778;6.798;2022-12-29T14:07:01;9.60;99.90
9389;DHT22;4734;52.778;6.798;2022-12-29T14:09:48;9.70;99.90
9389;DHT22;4734;52.778;6.798;2022-12-29T14:12:38;9.60;99.90
9389;DHT22;4734;52.778;6.798;2022-12-29T14:15:26;9.60;99.90
9389;DHT22;4734;52.778;6.798;2022-12-29T14:18:15;9.60;99.90
9389;DHT22;4734;52.778;6.798;2022-12-29T14:21:09;9.60;99.90
9389;DHT22;4734;52.778;6.798;2022-12-29T14:27:52;9.60;99.90
9389;DHT22;4734;52.778;6.798;2022-12-29T14:30:49;9.60;99.90
9389;DHT22;4734;52.778;6.798;2022-12-29T14:33:36;9.50;99.90
9389;DHT22;4734;52.778;6.798;2022-12-29T14:36:25;9.50;99.90
9389;DHT22;4734;52.778;6.798;2022-12-29T14:39:30;9.50;99.90
9389;DHT22;4734;52.778;6.798;2022-12-29T14:42:20;9.50;99.90
9389;DHT22;4734;52.778;6.798;2022-12-29T14:45:26;9.50;99.90
9389;DHT22;4734;52.778;6.798;2022-12-29T14:48:29;9.50;99.90
9389;DHT22;4734;52.778;6.798;2022-12-29T14:51:30;9.40;99.90
9389;DHT22;4734;52.778;6.798;2022-12-29T14:54:51;9.40;99.90
9389;DHT22;4734;52.778;6.798;2022-12-29T14:57:40;9.40;99.90
9389;DHT22;4734;52.778;6.798;2022-12-29T15:00:31;9.40;99.90
9389;DHT22;4734;52.778;6.798;2022-12-29T15:03:21;9.40;99.90
9389;DHT22;4734;52.778;6.798;2022-12-29T15:06:12;9.40;99.90
9389;DHT22;4734;52.778;6.798;2022-12-29T15:09:04;9.30;99.90
9389;DHT22;4734;52.778;6.798;2022-12-29T15:11:53;9.30;99.90
9389;DHT22;4734;52.778;6.798;2022-12-29T15:14:49;9.30;99.90
9389;DHT22;4734;52.778;6.798;2022-12-29T15:17:37;9.30;99.90
9389;DHT22;4734;52.778;6.798;2022-12-29T15:20:26;9.30;99.90
9389;DHT22;4734;52.778;6.798;2022-12-29T15:23:13;9.30;99.90
9389;DHT22;4734;52.778;6.798;2022-12-29T15:26:01;9.20;99.90
9389;DHT22;4734;52.778;6.798;2022-12-29T15:28:49;9.20;99.90
9389;DHT22;4734;52.778;6.798;2022-12-29T15:31:46;9.20;99.90
9389;DHT22;4734;52.778;6.798;2022-12-29T15:34:33;9.20;99.90
9389;DHT22;4734;52.778;6.798;2022-12-29T15:37:22;9.20;99.90
9389;DHT22;4734;52.778;6.798;2022-12-29T15:40:22;9.20;99.90
9389;DHT22;4734;52.778;6.798;2022-12-29T15:43:18;9.20;99.90
9389;DHT22;4734;52.778;6.798;2022-12-29T15:46:06;9.10;99.90
9389;DHT22;4734;52.778;6.798;2022-12-29T15:48:51;9.10;99.90
9389;DHT22;4734;52.778;6.798;2022-12-29T15:51:39;9.10;99.90
9389;DHT22;4734;52.778;6.798;2022-12-29T15:54:31;9.10;99.90
9389;DHT22;4734;52.778;6.798;2022-12-29T15:57:22;9.10;99.90
9389;DHT22;4734;52.778;6.798;2022-12-29T16:00:22;9.10;99.90
9389;DHT22;4734;52.778;6.798;2022-12-29T16:03:12;9.10;99.90
9389;DHT22;4734;52.778;6.798;2022-12-29T16:06:08;9.10;99.90
9389;DHT22;4734;52.778;6.798;2022-12-29T16:08:58;9.00;99.90
9389;DHT22;4734;52.778;6.798;2022-12-29T16:11:45;9.00;99.90
9389;DHT22;4734;52.778;6.798;2022-12-29T16:14:34;9.00;99.90
9389;DHT22;4734;52.778;6.798;2022-12-29T16:17:24;9.00;99.90
9389;DHT22;4734;52.778;6.798;2022-12-29T16:20:16;9.00;99.90
9389;DHT22;4734;52.778;6.798;2022-12-29T16:23:03;9.00;99.90
9389;DHT22;4734;52.778;6.798;2022-12-29T16:25:50;8.90;99.90
9389;DHT22;4734;52.778;6.798;2022-12-29T16:28:40;8.90;99.90
9389;DHT22;4734;52.778;6.798;2022-12-29T16:31:33;8.90;99.90
9389;DHT22;4734;52.778;6.798;2022-12-29T16:34:24;8.90;99.90
9389;DHT22;4734;52.778;6.798;2022-12-29T16:37:28;8.90;99.90
9389;DHT22;4734;52.778;6.798;2022-12-29T16:40:25;8.90;99.90
9389;DHT22;4734;52.778;6.798;2022-12-29T16:43:20;8.90;99.90
9389;DHT22;4734;52.778;6.798;2022-12-29T16:46:18;8.90;99.90
9389;DHT22;4734;52.778;6.798;2022-12-29T16:49:15;8.90;99.90
9389;DHT22;4734;52.778;6.798;2022-12-29T16:52:06;8.80;99.90
9389;DHT22;4734;52.778;6.798;2022-12-29T16:54:58;8.80;99.90
9389;DHT22;4734;52.778;6.798;2022-12-29T16:57:46;8.80;99.90
9389;DHT22;4734;52.778;6.798;2022-12-29T17:00:35;8.80;99.90
9389;DHT22;4734;52.778;6.798;2022-12-29T17:03:21;8.80;99.90
9389;DHT22;4734;52.778;6.798;2022-12-29T17:06:12;8.80;99.90
9389;DHT22;4734;52.778;6.798;2022-12-29T17:08:59;8.80;99.90
9389;DHT22;4734;52.778;6.798;2022-12-29T17:11:47;8.80;99.90
9389;DHT22;4734;52.778;6.798;2022-12-29T17:14:44;8.80;99.90
9389;DHT22;4734;52.778;6.798;2022-12-29T17:17:33;8.80;99.90
9389;DHT22;4734;52.778;6.798;2022-12-29T17:20:21;8.80;99.90
9389;DHT22;4734;52.778;6.798;2022-12-29T17:23:14;8.70;99.90
9389;DHT22;4734;52.778;6.798;2022-12-29T17:25:59;8.70;99.90
9389;DHT22;4734;52.778;6.798;2022-12-29T17:28:46;8.70;99.90
9389;DHT22;4734;52.778;6.798;2022-12-29T17:31:32;8.70;99.90
9389;DHT22;4734;52.778;6.798;2022-12-29T17:34:18;8.70;99.90
9389;DHT22;4734;52.778;6.798;2022-12-29T17:37:17;8.70;99.90
9389;DHT22;4734;52.778;6.798;2022-12-29T17:40:07;8.70;99.90
9389;DHT22;4734;52.778;6.798;2022-12-29T17:42:56;8.70;99.90
9389;DHT22;4734;52.778;6.798;2022-12-29T17:45:43;8.70;99.90
9389;DHT22;4734;52.778;6.798;2022-12-29T17:48:28;8.70;99.90
9389;DHT22;4734;52.778;6.798;2022-12-29T17:51:16;8.70;99.90
9389;DHT22;4734;52.778;6.798;2022-12-29T17:54:01;8.70;99.90
9389;DHT22;4734;52.778;6.798;2022-12-29T17:56:47;8.70;99.90
9389;DHT22;4734;52.778;6.798;2022-12-29T17:59:33;8.70;99.90
9389;DHT22;4734;52.778;6.798;2022-12-29T18:02:26;8.70;99.90
9389;DHT22;4734;52.778;6.798;2022-12-29T18:05:17;8.70;99.90
9389;DHT22;4734;52.778;6.798;2022-12-29T18:08:04;8.70;99.90
9389;DHT22;4734;52.778;6.798;2022-12-29T18:10:50;8.70;99.90
9389;DHT22;4734;52.778;6.798;2022-12-29T18:13:38;8.70;99.90
9389;DHT22;4734;52.778;6.798;2022-12-29T18:16:23;8.70;99.90
9389;DHT22;4734;52.778;6.798;2022-12-29T18:19:09;8.60;99.90
9389;DHT22;4734;52.778;6.798;2022-12-29T18:21:55;8.60;99.90
9389;DHT22;4734;52.778;6.798;2022-12-29T18:24:42;8.60;99.90
9389;DHT22;4734;52.778;6.798;2022-12-29T18:27:28;8.60;99.90
9389;DHT22;4734;52.778;6.798;2022-12-29T18:30:13;8.60;99.90
9389;DHT22;4734;52.778;6.798;2022-12-29T18:32:59;8.60;99.90
9389;DHT22;4734;52.778;6.798;2022-12-29T18:35:47;8.60;99.90
9389;DHT22;4734;52.778;6.798;2022-12-29T18:38:34;8.60;99.90
9389;DHT22;4734;52.778;6.798;2022-12-29T18:41:23;8.60;99.90
9389;DHT22;4734;52.778;6.798;2022-12-29T18:44:11;8.60;99.90
9389;DHT22;4734;52.778;6.798;2022-12-29T18:46:56;8.50;99.90
9389;DHT22;4734;52.778;6.798;2022-12-29T18:49:42;8.50;99.90
9389;DHT22;4734;52.778;6.798;2022-12-29T18:52:28;8.50;99.90
9389;DHT22;4734;52.778;6.798;2022-12-29T18:55:15;8.50;99.90
9389;DHT22;4734;52.778;6.798;2022-12-29T18:58:03;8.50;99.90
9389;DHT22;4734;52.778;6.798;2022-12-29T19:00:49;8.50;99.90
9389;DHT22;4734;52.778;6.798;2022-12-29T19:03:34;8.50;99.90
9389;DHT22;4734;52.778;6.798;2022-12-29T19:06:20;8.50;99.90
9389;DHT22;4734;52.778;6.798;2022-12-29T19:09:05;8.40;99.90
9389;DHT22;4734;52.778;6.798;2022-12-29T19:11:54;8.40;99.90
9389;DHT22;4734;52.778;6.798;2022-12-29T19:14:41;8.40;99.90
9389;DHT22;4734;52.778;6.798;2022-12-29T19:17:29;8.40;99.90
9389;DHT22;4734;52.778;6.798;2022-12-29T19:20:26;8.40;99.90
9389;DHT22;4734;52.778;6.798;2022-12-29T19:23:14;8.40;99.90
9389;DHT22;4734;52.778;6.798;2022-12-29T19:26:00;8.40;99.90
9389;DHT22;4734;52.778;6.798;2022-12-29T19:28:45;8.30;99.90
9389;DHT22;4734;52.778;6.798;2022-12-29T19:31:33;8.30;99.90
9389;DHT22;4734;52.778;6.798;2022-12-29T19:34:19;8.30;99.90
9389;DHT22;4734;52.778;6.798;2022-12-29T19:37:04;8.30;99.90